Terminal Aerodrome Forecast
Issued by NWS

Home | Current Version | Previous Version | Text Only | Print | Product List | Glossary On
Versions: 1 2 3 4 5 6 7 8 9 10 11 12 13 14 15 16 17 18 19 20 21 22 23 24 25 26 27 28 29 30 31 32 33 34 35
000
FTUS43 KDLH 231740
TAFBRD
TAF
KBRD 231740Z 2318/2418 21012G20KT P6SM BKN030
      TEMPO 2319/2322 5SM -TSRA OVC035CB
     FM240000 19008KT P6SM BKN050
     FM240400 21003KT P6SM SCT050
      TEMPO 2408/2412 2SM BR
     FM241500 17006KT P6SM BKN028=

USA.gov is the U.S. government's official web portal to all federal, state and local government web resources and services.